createdAt,value
2022-11-23T00:01:51.123Z,185.75
2022-11-23T00:04:20.605Z,188.68
2022-11-23T00:06:50.152Z,179.60
2022-11-23T00:09:20.218Z,180.75
2022-11-23T00:11:49.598Z,177.82
2022-11-23T00:14:17.834Z,169.05
2022-11-23T00:16:47.220Z,181.70
2022-11-23T00:19:16.651Z,177.65
2022-11-23T00:21:45.132Z,176.20
2022-11-23T00:24:15.971Z,182.68
2022-11-23T00:26:45.416Z,172.20
2022-11-23T00:29:16.050Z,173.40
2022-11-23T00:31:45.472Z,176.15
2022-11-23T00:34:15.233Z,178.57
2022-11-23T00:36:43.518Z,174.95
2022-11-23T00:39:13.362Z,175.93
2022-11-23T00:41:45.405Z,174.88
2022-11-23T00:44:16.396Z,188.60
2022-11-23T00:46:46.123Z,191.25
2022-11-23T00:49:15.761Z,177.52
2022-11-23T00:51:45.168Z,174.13
2022-11-23T00:54:14.825Z,184.50
2022-11-23T00:56:46.031Z,196.90
2022-11-23T00:59:17.045Z,198.30
2022-11-23T01:01:46.550Z,176.18
2022-11-23T01:04:16.700Z,179.52
2022-11-23T01:06:46.183Z,170.85
2022-11-23T01:09:20.317Z,170.98
2022-11-23T01:11:53.187Z,176.95
2022-11-23T01:14:25.733Z,182.85
2022-11-23T01:16:55.629Z,184.80
2022-11-23T01:19:25.352Z,186.00
2022-11-23T01:21:53.565Z,184.55
2022-11-23T01:24:27.340Z,186.10
2022-11-23T01:26:58.123Z,184.25
2022-11-23T01:29:29.675Z,186.75
2022-11-23T01:32:02.684Z,187.07
2022-11-23T01:34:32.276Z,183.65
2022-11-23T01:37:01.717Z,186.73
2022-11-23T01:39:31.699Z,182.18
2022-11-23T01:42:02.620Z,184.90
2022-11-23T01:44:33.811Z,184.82
2022-11-23T01:47:05.833Z,185.52
2022-11-23T01:49:41.946Z,177.68
2022-11-23T01:52:16.861Z,174.00
2022-11-23T01:54:51.474Z,187.27
2022-11-23T01:57:26.892Z,191.27
2022-11-23T01:59:57.299Z,191.15
2022-11-23T02:02:29.365Z,187.40
2022-11-23T02:05:01.844Z,187.27
2022-11-23T02:07:34.779Z,187.13
2022-11-23T02:10:04.880Z,186.80
2022-11-23T02:12:35.771Z,177.13
2022-11-23T02:15:06.881Z,178.98
2022-11-23T02:17:37.864Z,185.40
2022-11-23T02:20:13.439Z,176.55
2022-11-23T02:23:00.719Z,180.65
2022-11-23T02:25:39.157Z,182.07
2022-11-23T02:28:11.868Z,186.55
2022-11-23T02:30:42.177Z,191.13
2022-11-23T02:33:11.661Z,193.98
2022-11-23T02:35:51.167Z,199.65
2022-11-23T02:38:21.872Z,197.45
2022-11-23T02:40:50.096Z,196.52
2022-11-23T02:43:26.787Z,195.40
2022-11-23T02:46:00.373Z,204.75
2022-11-23T02:48:28.657Z,197.93
2022-11-23T02:50:58.055Z,191.75
2022-11-23T02:53:26.310Z,200.20
2022-11-23T02:55:56.261Z,206.27
2022-11-23T02:58:28.806Z,211.70
2022-11-23T03:03:26.408Z,209.95
2022-11-23T03:05:55.028Z,209.65
2022-11-23T03:08:24.492Z,210.13
2022-11-23T03:10:52.789Z,205.13
2022-11-23T03:13:22.738Z,209.45
2022-11-23T03:15:56.790Z,202.05
2022-11-23T03:18:28.468Z,183.43
2022-11-23T03:21:04.158Z,183.63
2022-11-23T03:23:35.233Z,191.15
2022-11-23T03:26:12.659Z,186.73
2022-11-23T03:31:22.755Z,195.77
2022-11-23T03:33:51.331Z,194.77
2022-11-23T03:36:19.727Z,191.98
2022-11-23T03:38:50.998Z,195.05
2022-11-23T03:41:38.815Z,188.45
2022-11-23T03:44:07.105Z,191.27
2022-11-23T03:46:38.026Z,194.73
2022-11-23T03:49:07.736Z,193.60
2022-11-23T03:51:36.273Z,184.95
2022-11-23T03:54:06.153Z,197.00
2022-11-23T03:56:35.853Z,193.30
2022-11-23T03:59:04.380Z,191.98
2022-11-23T04:01:33.879Z,187.00
2022-11-23T04:04:09.701Z,188.73
2022-11-23T04:06:59.456Z,190.32
2022-11-23T04:09:34.761Z,189.98
2022-11-23T04:12:24.352Z,200.88
2022-11-23T04:14:52.676Z,194.85
2022-11-23T04:17:21.187Z,206.32
2022-11-23T04:19:51.383Z,203.35
2022-11-23T04:22:21.177Z,206.63
2022-11-23T04:24:52.074Z,208.18
2022-11-23T04:27:20.452Z,201.00
2022-11-23T04:29:50.334Z,195.55
2022-11-23T04:32:19.767Z,190.05
2022-11-23T04:34:51.845Z,194.18
2022-11-23T04:37:20.096Z,195.55
2022-11-23T04:39:49.614Z,192.95
2022-11-23T04:42:26.972Z,189.55
2022-11-23T04:45:01.033Z,189.05
2022-11-23T04:47:31.016Z,199.00
2022-11-23T04:50:08.106Z,203.07
2022-11-23T04:52:36.396Z,202.38
2022-11-23T04:55:11.077Z,205.25
2022-11-23T04:57:48.915Z,204.70
2022-11-23T05:00:20.692Z,190.27
2022-11-23T05:02:49.650Z,195.32
2022-11-23T05:05:30.867Z,200.05
2022-11-23T05:08:00.052Z,191.10
2022-11-23T05:10:42.429Z,192.65
2022-11-23T05:13:14.014Z,192.45
2022-11-23T05:15:45.929Z,190.70
2022-11-23T05:18:18.604Z,180.02
2022-11-23T05:20:48.539Z,192.88
2022-11-23T05:23:18.165Z,191.75
2022-11-23T05:25:49.546Z,195.70
2022-11-23T05:31:13.619Z,191.40
2022-11-23T05:33:45.494Z,193.57
2022-11-23T05:36:18.192Z,211.63
2022-11-23T05:38:46.465Z,198.63
2022-11-23T05:41:21.298Z,194.80
2022-11-23T05:43:55.313Z,193.48
2022-11-23T05:46:29.061Z,197.90
2022-11-23T05:48:58.562Z,198.30
2022-11-23T05:51:30.371Z,196.18
2022-11-23T05:53:59.852Z,201.40
2022-11-23T05:56:40.598Z,181.67
2022-11-23T05:59:17.895Z,188.25
2022-11-23T06:01:51.231Z,205.65
2022-11-23T06:04:28.009Z,199.32
2022-11-23T06:07:01.097Z,213.88
2022-11-23T06:09:39.178Z,207.57
2022-11-23T06:12:10.557Z,206.70
2022-11-23T06:14:40.579Z,211.43
2022-11-23T06:17:10.437Z,220.10
2022-11-23T06:19:45.635Z,208.85
2022-11-23T06:22:16.154Z,219.20
2022-11-23T06:25:14.014Z,223.45
2022-11-23T06:27:59.832Z,217.98
2022-11-23T06:30:35.062Z,207.75
2022-11-23T06:33:08.035Z,220.27
2022-11-23T06:35:54.823Z,226.25
2022-11-23T06:38:28.662Z,221.05
2022-11-23T06:41:11.912Z,203.52
2022-11-23T06:43:42.800Z,203.43
2022-11-23T06:46:14.687Z,208.80
2022-11-23T06:48:46.802Z,208.10
2022-11-23T06:51:17.117Z,205.73
2022-11-23T06:53:49.839Z,218.43
2022-11-23T06:56:19.895Z,211.02
2022-11-23T06:58:50.707Z,210.32
2022-11-23T07:01:23.745Z,219.57
2022-11-23T07:03:59.708Z,214.20
2022-11-23T07:06:40.475Z,213.18
2022-11-23T07:09:16.785Z,226.52
2022-11-23T07:11:56.789Z,213.30
2022-11-23T07:14:28.575Z,208.77
2022-11-23T07:16:57.909Z,210.15
2022-11-23T07:19:27.752Z,209.65
2022-11-23T07:22:00.010Z,208.50
2022-11-23T07:24:38.698Z,213.00
2022-11-23T07:27:09.591Z,221.65
2022-11-23T07:29:37.984Z,206.73
2022-11-23T07:32:08.491Z,208.23
2022-11-23T07:34:39.303Z,206.93
2022-11-23T07:37:09.439Z,203.73
2022-11-23T07:39:56.949Z,206.73
2022-11-23T07:42:39.877Z,210.52
2022-11-23T07:45:13.182Z,215.85
2022-11-23T07:47:46.886Z,196.13
2022-11-23T07:50:18.812Z,188.55
2022-11-23T07:52:48.619Z,192.07
2022-11-23T07:55:19.648Z,194.95
2022-11-23T07:57:48.277Z,190.77
2022-11-23T08:00:19.185Z,190.57
2022-11-23T08:03:11.391Z,205.63
2022-11-23T08:05:37.821Z,182.77
2022-11-23T08:08:07.610Z,201.18
2022-11-23T08:10:42.029Z,208.15
2022-11-23T08:13:14.742Z,202.60
2022-11-23T08:15:47.593Z,194.68
2022-11-23T08:18:21.567Z,190.88
2022-11-23T08:20:52.666Z,192.93
2022-11-23T08:23:21.467Z,208.10
2022-11-23T08:25:52.885Z,213.30
2022-11-23T08:28:21.862Z,203.90
2022-11-23T08:30:50.428Z,209.35
2022-11-23T08:33:18.789Z,202.10
2022-11-23T08:35:47.296Z,196.52
2022-11-23T08:38:15.862Z,188.10
2022-11-23T08:40:45.433Z,185.88
2022-11-23T08:43:15.397Z,203.13
2022-11-23T08:45:46.075Z,198.67
2022-11-23T08:48:15.475Z,194.43
2022-11-23T08:50:45.504Z,214.75
2022-11-23T08:53:15.310Z,213.00
2022-11-23T08:55:45.359Z,224.10
2022-11-23T08:58:16.341Z,212.27
2022-11-23T09:00:45.814Z,199.93
2022-11-23T09:03:15.671Z,194.43
2022-11-23T09:05:45.104Z,188.07
2022-11-23T09:08:16.383Z,199.38
2022-11-23T09:10:47.185Z,213.43
2022-11-23T09:13:18.143Z,212.18
2022-11-23T09:15:47.652Z,192.48
2022-11-23T09:18:17.154Z,193.25
2022-11-23T09:20:46.564Z,190.80
2022-11-23T09:23:16.108Z,195.25
2022-11-23T09:25:47.758Z,195.18
2022-11-23T09:28:19.742Z,202.18
2022-11-23T09:30:48.549Z,208.32
2022-11-23T09:33:17.181Z,208.15
2022-11-23T09:35:47.841Z,203.20
2022-11-23T09:38:16.919Z,206.85
2022-11-23T09:40:47.589Z,217.63
2022-11-23T09:43:41.029Z,208.65
2022-11-23T09:46:23.093Z,201.02
2022-11-23T09:49:10.610Z,205.18
2022-11-23T09:51:41.313Z,201.77
2022-11-23T09:54:27.622Z,224.32
2022-11-23T09:57:01.878Z,223.85
2022-11-23T09:59:43.098Z,226.48
2022-11-23T10:02:22.456Z,226.43
2022-11-23T10:04:53.565Z,223.68
2022-11-23T10:07:38.112Z,217.15
2022-11-23T10:10:23.914Z,236.13
2022-11-23T10:13:07.055Z,220.98
2022-11-23T10:15:47.979Z,206.43
2022-11-23T10:18:27.409Z,209.02
2022-11-23T10:21:08.657Z,208.68
2022-11-23T10:23:49.812Z,198.63
2022-11-23T10:26:23.261Z,209.77
2022-11-23T10:28:55.205Z,213.40
2022-11-23T10:31:26.671Z,211.35
2022-11-23T10:34:02.082Z,222.85
2022-11-23T10:36:30.320Z,204.98
2022-11-23T10:39:01.568Z,203.35
2022-11-23T10:41:33.339Z,208.55
2022-11-23T10:44:15.029Z,204.45
2022-11-23T10:46:48.526Z,217.10
2022-11-23T10:49:23.213Z,200.43
2022-11-23T10:51:56.890Z,207.70
2022-11-23T10:54:31.078Z,210.00
2022-11-23T10:57:03.186Z,206.55
2022-11-23T10:59:36.608Z,207.68
2022-11-23T11:02:20.175Z,200.98
2022-11-23T11:04:55.882Z,194.57
2022-11-23T11:07:32.816Z,196.27
2022-11-23T11:10:05.627Z,182.50
2022-11-23T11:12:35.996Z,202.23
2022-11-23T11:15:18.093Z,199.35
2022-11-23T11:17:57.158Z,210.00
2022-11-23T11:20:35.039Z,184.70
2022-11-23T11:23:16.713Z,184.98
2022-11-23T11:25:48.976Z,206.15
2022-11-23T11:28:25.695Z,202.13
2022-11-23T11:31:15.632Z,207.52
2022-11-23T11:33:54.911Z,207.23
2022-11-23T11:36:27.980Z,219.27
2022-11-23T11:39:17.860Z,213.18
2022-11-23T11:41:50.343Z,218.18
2022-11-23T11:44:23.599Z,224.00
2022-11-23T11:47:00.423Z,220.40
2022-11-23T11:49:36.773Z,225.40
2022-11-23T11:52:12.776Z,220.15
2022-11-23T11:54:51.911Z,219.15
2022-11-23T11:57:25.141Z,212.15
2022-11-23T11:59:58.654Z,209.52
2022-11-23T12:02:33.526Z,228.23
2022-11-23T12:05:15.084Z,241.73
2022-11-23T12:07:53.396Z,242.70
2022-11-23T12:10:30.725Z,241.55
2022-11-23T12:12:59.085Z,237.13
2022-11-23T12:15:49.371Z,212.48
2022-11-23T12:18:39.497Z,204.65
2022-11-23T12:21:24.093Z,235.45
2022-11-23T12:24:01.445Z,228.27
2022-11-23T12:26:42.523Z,244.93
2022-11-23T12:29:38.552Z,242.00
2022-11-23T12:32:22.166Z,226.82
2022-11-23T12:35:23.612Z,227.02
2022-11-23T12:38:09.905Z,235.27
2022-11-23T12:40:55.811Z,231.80
2022-11-23T12:43:36.664Z,248.00
2022-11-23T12:46:16.850Z,246.48
2022-11-23T12:49:02.281Z,237.60
2022-11-23T12:51:42.515Z,239.65
2022-11-23T12:54:44.708Z,239.90
2022-11-23T12:57:21.662Z,231.18
2022-11-23T12:59:55.769Z,218.23
2022-11-23T13:03:13.304Z,217.88
2022-11-23T13:06:33.877Z,236.10
2022-11-23T13:10:04.384Z,228.38
2022-11-23T13:12:55.728Z,212.88
2022-11-23T13:15:43.567Z,229.23
2022-11-23T13:18:21.665Z,230.27
2022-11-23T13:21:17.840Z,227.57
2022-11-23T13:23:47.002Z,223.57
2022-11-23T13:26:22.575Z,239.90
2022-11-23T13:28:54.019Z,213.30
2022-11-23T13:31:31.695Z,222.20
2022-11-23T13:34:03.264Z,224.90
2022-11-23T13:40:03.927Z,229.57
2022-11-23T13:42:35.909Z,224.48
2022-11-23T13:45:31.060Z,206.82
2022-11-23T13:51:07.180Z,198.27
2022-11-23T13:53:39.509Z,206.23
2022-11-23T13:56:35.059Z,212.77
2022-11-23T13:59:31.679Z,207.43
2022-11-23T14:02:20.562Z,195.65
2022-11-23T14:04:49.433Z,200.98
2022-11-23T14:07:22.845Z,215.80
2022-11-23T14:09:53.995Z,221.27
2022-11-23T14:12:36.809Z,225.67
2022-11-23T14:15:17.159Z,216.60
2022-11-23T14:18:22.666Z,202.27
2022-11-23T14:21:03.259Z,199.75
2022-11-23T14:24:05.431Z,200.73
2022-11-23T14:26:43.980Z,199.65
2022-11-23T14:29:35.619Z,197.50
2022-11-23T14:32:33.248Z,214.40
2022-11-23T14:35:23.780Z,216.63
2022-11-23T14:38:43.281Z,218.35
2022-11-23T14:41:20.019Z,222.75
2022-11-23T14:43:49.026Z,225.05
2022-11-23T14:46:19.899Z,217.05
2022-11-23T14:48:50.609Z,217.83
2022-11-23T14:51:24.608Z,211.80
2022-11-23T14:53:57.079Z,210.27
2022-11-23T14:56:35.582Z,206.85
2022-11-23T14:59:09.342Z,207.15
2022-11-23T15:01:40.433Z,214.40
2022-11-23T15:04:25.049Z,219.17
2022-11-23T15:07:00.384Z,210.40
2022-11-23T15:09:45.774Z,208.10
2022-11-23T15:12:24.613Z,211.70
2022-11-23T15:14:54.156Z,210.48
2022-11-23T15:17:26.293Z,208.77
2022-11-23T15:22:31.287Z,211.20
2022-11-23T15:25:09.064Z,210.35
2022-11-23T15:27:42.137Z,215.85
2022-11-23T15:30:19.779Z,220.95
2022-11-23T15:32:59.389Z,220.52
2022-11-23T15:35:35.426Z,223.43
2022-11-23T15:38:09.673Z,222.98
2022-11-23T15:40:41.703Z,215.35
2022-11-23T15:46:07.579Z,215.93
2022-11-23T15:51:09.656Z,216.43
2022-11-23T15:53:51.316Z,208.48
2022-11-23T15:56:26.356Z,207.38
2022-11-23T15:58:56.916Z,213.50
2022-11-23T16:01:28.376Z,207.40
2022-11-23T16:04:02.082Z,195.82
2022-11-23T16:06:42.107Z,191.70
2022-11-23T16:09:50.521Z,183.27
2022-11-23T16:12:29.645Z,187.60
2022-11-23T16:15:00.819Z,183.75
2022-11-23T16:17:32.196Z,187.40
2022-11-23T16:20:05.098Z,197.73
2022-11-23T16:22:38.408Z,188.55
2022-11-23T16:25:19.077Z,184.25
2022-11-23T16:27:57.571Z,181.88
2022-11-23T16:30:41.115Z,180.30
2022-11-23T16:33:16.431Z,184.50
2022-11-23T16:35:46.004Z,177.02
2022-11-23T16:38:18.378Z,171.20
2022-11-23T16:40:49.084Z,171.52
2022-11-23T16:43:19.934Z,180.60
2022-11-23T16:45:51.285Z,175.77
2022-11-23T16:48:43.878Z,158.27
2022-11-23T16:54:12.565Z,187.00
2022-11-23T16:56:35.501Z,188.32
2022-11-23T16:59:06.366Z,184.55
2022-11-23T17:01:40.196Z,175.77
2022-11-23T17:04:11.956Z,189.15
2022-11-23T17:06:42.814Z,176.63
2022-11-23T17:09:15.067Z,173.85
2022-11-23T17:11:47.459Z,171.75
2022-11-23T17:14:19.812Z,170.90
2022-11-23T17:16:50.008Z,166.57
2022-11-23T17:19:22.123Z,159.43
2022-11-23T17:21:50.791Z,158.00
2022-11-23T17:24:20.350Z,158.30
2022-11-23T17:26:53.457Z,159.77
2022-11-23T17:29:24.145Z,162.07
2022-11-23T17:31:52.864Z,176.70
2022-11-23T17:34:21.210Z,160.38
2022-11-23T17:36:52.709Z,163.32
2022-11-23T17:39:25.535Z,161.15
2022-11-23T17:41:54.038Z,166.20
2022-11-23T17:44:22.628Z,165.93
2022-11-23T17:46:54.528Z,166.25
2022-11-23T17:49:28.111Z,189.93
2022-11-23T17:51:58.169Z,193.95
2022-11-23T17:54:28.062Z,191.30
2022-11-23T17:56:58.983Z,190.52
2022-11-23T17:59:27.505Z,186.60
2022-11-23T18:01:57.881Z,193.68
2022-11-23T18:04:26.138Z,188.23
2022-11-23T18:06:55.914Z,184.25
2022-11-23T18:09:25.365Z,168.68
2022-11-23T18:11:56.361Z,168.77
2022-11-23T18:14:28.776Z,169.95
2022-11-23T18:16:58.649Z,170.63
2022-11-23T18:19:27.240Z,172.13
2022-11-23T18:21:56.812Z,176.55
2022-11-23T18:24:26.585Z,191.15
2022-11-23T18:26:57.479Z,192.27
2022-11-23T18:29:27.521Z,191.43
2022-11-23T18:31:56.968Z,188.60
2022-11-23T18:34:25.562Z,186.00
2022-11-23T18:36:54.379Z,188.90
2022-11-23T18:39:25.026Z,188.90
2022-11-23T18:41:53.219Z,189.25
2022-11-23T18:44:22.839Z,183.20
2022-11-23T18:46:52.300Z,179.98
2022-11-23T18:49:23.804Z,184.35
2022-11-23T18:51:53.277Z,188.00
2022-11-23T18:54:23.955Z,188.57
2022-11-23T18:56:53.401Z,185.43
2022-11-23T19:02:14.211Z,187.45
2022-11-23T19:04:44.028Z,190.00
2022-11-23T19:07:15.096Z,190.10
2022-11-23T19:09:43.497Z,180.98
2022-11-23T19:12:14.082Z,168.18
2022-11-23T19:14:49.830Z,176.07
2022-11-23T19:17:19.925Z,183.38
2022-11-23T19:19:49.346Z,182.17
2022-11-23T19:22:18.805Z,180.00
2022-11-23T19:24:47.156Z,179.15
2022-11-23T19:27:18.313Z,178.57
2022-11-23T19:29:47.876Z,182.05
2022-11-23T19:32:18.774Z,182.73
2022-11-23T19:34:48.563Z,188.48
2022-11-23T19:37:19.226Z,185.05
2022-11-23T19:39:47.840Z,184.40
2022-11-23T19:42:16.055Z,181.95
2022-11-23T19:44:48.173Z,181.25
2022-11-23T19:49:52.568Z,182.07
2022-11-23T19:52:26.858Z,183.27
2022-11-23T19:55:01.623Z,181.48
2022-11-23T19:57:31.067Z,183.90
2022-11-23T20:00:01.810Z,184.32
2022-11-23T20:02:41.603Z,184.70
2022-11-23T20:05:12.886Z,187.85
2022-11-23T20:07:42.381Z,186.68
2022-11-23T20:10:11.009Z,186.52
2022-11-23T20:12:41.681Z,184.13
2022-11-23T20:15:12.831Z,183.82
2022-11-23T20:17:43.770Z,183.77
2022-11-23T20:20:13.219Z,183.07
2022-11-23T20:22:46.218Z,183.57
2022-11-23T20:25:16.519Z,184.30
2022-11-23T20:27:47.539Z,181.55
2022-11-23T20:30:17.783Z,176.05
2022-11-23T20:32:51.760Z,174.43
2022-11-23T20:35:20.236Z,172.88
2022-11-23T20:37:50.680Z,179.77
2022-11-23T20:40:19.171Z,181.90
2022-11-23T20:42:48.618Z,181.38
2022-11-23T20:45:19.480Z,181.43
2022-11-23T20:47:53.558Z,181.85
2022-11-23T20:50:25.150Z,176.25
2022-11-23T20:52:56.431Z,172.70
2022-11-23T20:55:26.050Z,176.25
2022-11-23T20:57:56.186Z,172.38
2022-11-23T21:00:26.212Z,173.60
2022-11-23T21:02:57.973Z,170.98
2022-11-23T21:05:27.896Z,171.85
2022-11-23T21:07:58.661Z,172.65
2022-11-23T21:10:45.588Z,179.20
2022-11-23T21:13:48.901Z,179.95
2022-11-23T21:16:19.399Z,179.75
2022-11-23T21:18:47.748Z,179.50
2022-11-23T21:21:17.124Z,165.43
2022-11-23T21:23:51.115Z,156.93
2022-11-23T21:26:20.754Z,169.82
2022-11-23T21:28:49.328Z,173.40
2022-11-23T21:31:20.252Z,167.52
2022-11-23T21:33:52.385Z,173.55
2022-11-23T21:36:23.535Z,178.35
2022-11-23T21:38:54.225Z,164.80
2022-11-23T21:41:23.998Z,163.57
2022-11-23T21:43:55.726Z,171.95
2022-11-23T21:46:25.760Z,186.82
2022-11-23T21:48:56.863Z,196.43
2022-11-23T21:51:28.472Z,178.18
2022-11-23T21:53:59.757Z,194.40
2022-11-23T21:56:29.401Z,177.98
2022-11-23T21:59:01.349Z,187.65
2022-11-23T22:01:34.507Z,193.30
2022-11-23T22:04:06.358Z,180.77
2022-11-23T22:06:36.173Z,193.55
2022-11-23T22:09:09.272Z,196.55
2022-11-23T22:14:14.727Z,190.25
2022-11-23T22:16:49.516Z,186.20
2022-11-23T22:19:20.983Z,195.25
2022-11-23T22:21:50.496Z,193.90
2022-11-23T22:24:23.385Z,196.70
2022-11-23T22:26:52.771Z,190.13
2022-11-23T22:29:22.226Z,193.63
2022-11-23T22:31:53.129Z,191.18
2022-11-23T22:34:21.400Z,196.95
2022-11-23T22:36:51.727Z,198.48
2022-11-23T22:39:19.963Z,198.55
2022-11-23T22:41:49.391Z,195.43
2022-11-23T22:44:17.725Z,200.32
2022-11-23T22:46:46.275Z,199.50
2022-11-23T22:49:17.078Z,198.48
2022-11-23T22:51:46.528Z,195.27
2022-11-23T22:54:15.998Z,196.95
2022-11-23T22:56:44.187Z,194.93
2022-11-23T22:59:13.620Z,198.88
2022-11-23T23:01:43.262Z,195.43
2022-11-23T23:04:12.685Z,196.00
2022-11-23T23:06:43.569Z,195.10
2022-11-23T23:09:13.159Z,198.23
2022-11-23T23:11:42.587Z,194.02
2022-11-23T23:14:12.075Z,197.38
2022-11-23T23:16:41.557Z,191.68
2022-11-23T23:19:12.697Z,196.75
2022-11-23T23:21:40.860Z,192.50
2022-11-23T23:24:12.074Z,198.10
2022-11-23T23:26:40.345Z,198.88
2022-11-23T23:29:09.783Z,200.10
2022-11-23T23:31:38.087Z,199.02
2022-11-23T23:34:08.046Z,202.10
2022-11-23T23:36:38.238Z,199.20
2022-11-23T23:39:07.769Z,202.27
2022-11-23T23:41:38.542Z,203.15
2022-11-23T23:44:06.945Z,205.40
2022-11-23T23:46:36.511Z,204.27
2022-11-23T23:49:06.104Z,208.75
2022-11-23T23:51:34.341Z,201.50
2022-11-23T23:54:03.797Z,205.45
2022-11-23T23:56:32.021Z,204.52
2022-11-23T23:59:04.319Z,208.60
